ハノイ の空港の天気 - METARとTAF

ノイバイ国際空港(ハノイ) ( VVNB / HAN ) - ベトナム ハノイ
飛行場実況気象(Metar)
観測時間07/19 10:00 ICT (07/19 03:00 UTC)
風向・風速北東 2m/s
視程5000m
天気現象
なし
気温33℃
湿度71%
気圧1001hPa
METARVVNB 190300Z 04004KT 330V090 5000 NSC 33/27 Q1001 NOSIG
過去の天気等 Google飛行場航空写真 Wunderground天気予報

過去48時間のMETAR

飛行場予報(TAF)
発表時間: 7/19 06:00 ICT (7/18 23:00 UTC)
予報対象時間: 19日7時 ICT ~ 20日7時 ICT
風向・風速東北東 3m/s
視程7000m
全天の4割程度の雲 雲底高度 610m
TAF VVNB 182300Z 1900/1924 07006KT 7000 SCT020